Time;durP1;ratioP1;P1;durP2;ratioP2;P2;SDS_P1;SDS_P2;PMS_P1;PMS_P2;Temp;Humidity;BMP_temperature;BMP_pressure;BME280_temperature;BME280_humidity;BME280_pressure;Samples;Min_cycle;Max_cycle;Signal;HPM_P1;HPM_P2
2022/09/02 00:01:18;;;;;;;1.97;1.20;;;14.90;99.90;;;;;;5093346;28;20474;-59
2022/09/02 00:03:45;;;;;;;1.30;1.20;;;14.90;99.90;;;;;;5093400;28;20473;-60
2022/09/02 00:06:13;;;;;;;3.70;1.20;;;14.90;99.90;;;;;;5093296;28;20446;-59
2022/09/02 00:08:40;;;;;;;1.40;1.20;;;15.00;99.90;;;;;;5093156;28;20457;-59
2022/09/02 00:11:08;;;;;;;1.30;1.20;;;15.00;99.90;;;;;;5093079;28;20457;-59
2022/09/02 00:13:36;;;;;;;1.40;1.30;;;15.10;99.90;;;;;;5093336;28;20496;-59
2022/09/02 00:16:05;;;;;;;1.43;1.00;;;15.10;99.90;;;;;;5093168;28;20855;-60
2022/09/02 00:18:33;;;;;;;1.40;1.30;;;15.00;99.90;;;;;;5093026;28;20446;-60
2022/09/02 00:21:00;;;;;;;1.20;1.10;;;14.90;99.90;;;;;;5093022;28;20476;-59
2022/09/02 00:23:27;;;;;;;1.13;1.03;;;14.80;99.90;;;;;;5093046;28;20486;-59
2022/09/02 00:25:53;;;;;;;1.30;1.20;;;14.90;99.90;;;;;;5092929;28;20443;-59
2022/09/02 00:28:20;;;;;;;2.03;1.30;;;14.90;99.90;;;;;;5093146;28;20913;-59
2022/09/02 00:30:46;;;;;;;1.37;1.27;;;15.00;99.90;;;;;;5092954;28;20474;-59
2022/09/02 00:33:14;;;;;;;2.33;1.17;;;15.00;99.90;;;;;;5093061;28;20474;-59
2022/09/02 00:35:42;;;;;;;1.60;1.50;;;15.00;99.90;;;;;;5092899;28;20474;-60
2022/09/02 00:38:10;;;;;;;2.83;1.70;;;15.10;99.90;;;;;;5092766;28;20541;-60
2022/09/02 00:40:38;;;;;;;1.53;1.37;;;15.10;99.90;;;;;;5092984;28;20443;-60
2022/09/02 00:43:07;;;;;;;1.20;1.10;;;15.20;99.90;;;;;;5092873;28;20482;-59
2022/09/02 00:45:34;;;;;;;2.33;1.33;;;15.20;99.90;;;;;;5092810;28;20508;-60
2022/09/02 00:48:00;;;;;;;3.17;1.30;;;15.20;99.90;;;;;;5092574;28;20501;-60
2022/09/02 00:50:32;;;;;;;1.10;1.00;;;15.40;99.90;;;;;;5092697;28;20446;-60
2022/09/02 00:53:04;;;;;;;1.30;1.20;;;15.50;99.90;;;;;;5096533;28;20566;-60
2022/09/02 00:55:35;;;;;;;1.47;1.30;;;15.50;99.90;;;;;;5097016;28;20533;-59
2022/09/02 00:58:06;;;;;;;1.93;1.27;;;15.50;99.90;;;;;;5097110;28;20456;-59
2022/09/02 01:00:37;;;;;;;1.17;1.07;;;15.60;99.90;;;;;;5096728;28;20817;-59
2022/09/02 01:03:08;;;;;;;2.37;1.57;;;15.40;99.90;;;;;;5096602;28;20516;-59
2022/09/02 01:05:45;;;;;;;3.60;1.43;;;15.30;99.90;;;;;;5096829;28;20448;-59
2022/09/02 01:08:14;;;;;;;3.23;1.07;;;15.30;99.90;;;;;;5096698;28;20449;-60
2022/09/02 01:10:42;;;;;;;2.70;1.10;;;15.00;99.90;;;;;;5096556;28;20884;-60
2022/09/02 01:13:11;;;;;;;1.20;1.10;;;15.00;99.90;;;;;;5096477;28;20485;-60
2022/09/02 01:15:42;;;;;;;4.07;1.00;;;15.10;99.90;;;;;;5096336;28;20446;-59
2022/09/02 01:18:12;;;;;;;1.83;1.10;;;15.10;99.90;;;;;;5096553;28;20469;-59
2022/09/02 01:20:39;;;;;;;2.30;1.73;;;14.90;99.90;;;;;;5096410;28;20446;-60
2022/09/02 01:23:06;;;;;;;1.40;1.30;;;14.90;99.90;;;;;;5096332;28;20488;-60
2022/09/02 01:25:35;;;;;;;2.70;1.40;;;14.90;99.90;;;;;;5096315;28;20813;-61
2022/09/02 01:28:03;;;;;;;1.23;1.13;;;14.90;99.90;;;;;;5096170;28;20450;-59
2022/09/02 01:30:30;;;;;;;1.47;1.37;;;15.00;99.90;;;;;;5096058;28;20446;-60
2022/09/02 01:32:57;;;;;;;1.50;1.40;;;14.80;99.90;;;;;;5096300;28;20451;-59
2022/09/02 01:35:24;;;;;;;1.53;1.20;;;14.70;99.90;;;;;;5095993;28;20537;-59
2022/09/02 01:37:55;;;;;;;1.90;1.30;;;14.80;99.90;;;;;;5096087;28;20446;-59
2022/09/02 01:40:25;;;;;;;1.03;0.93;;;14.80;99.90;;;;;;5096400;28;20541;-59
2022/09/02 01:42:55;;;;;;;2.20;1.20;;;14.60;99.90;;;;;;5095674;28;20478;-60
2022/09/02 01:45:21;;;;;;;2.30;1.37;;;14.40;99.90;;;;;;5096012;28;20450;-59
2022/09/02 01:47:48;;;;;;;1.47;1.20;;;14.30;99.90;;;;;;5095711;28;20482;-60
2022/09/02 01:50:15;;;;;;;1.30;1.20;;;14.30;99.90;;;;;;5095743;28;20550;-59
2022/09/02 01:52:41;;;;;;;1.33;1.23;;;14.40;99.90;;;;;;5095741;28;20542;-59
2022/09/02 01:55:09;;;;;;;1.50;1.30;;;14.50;99.90;;;;;;5095581;28;20504;-59
2022/09/02 01:57:37;;;;;;;1.30;1.20;;;14.50;99.90;;;;;;5095896;28;20529;-60
2022/09/02 02:00:05;;;;;;;1.30;1.20;;;14.50;99.90;;;;;;5095440;28;20954;-60
2022/09/02 02:02:32;;;;;;;1.60;1.43;;;14.30;99.90;;;;;;5095210;28;20575;-59
2022/09/02 02:04:58;;;;;;;1.27;1.17;;;14.40;99.90;;;;;;5095588;28;20801;-59
2022/09/02 02:07:25;;;;;;;1.90;1.43;;;14.20;99.90;;;;;;5095394;28;20496;-60
2022/09/02 02:09:51;;;;;;;1.40;1.30;;;14.00;99.90;;;;;;5095729;28;20450;-60
2022/09/02 02:12:19;;;;;;;2.10;1.20;;;13.90;99.90;;;;;;5095471;28;20451;-60
2022/09/02 02:14:47;;;;;;;1.50;1.27;;;13.90;99.90;;;;;;5095418;28;20447;-60
2022/09/02 02:17:14;;;;;;;1.43;1.30;;;13.90;99.90;;;;;;5095296;28;20446;-60
2022/09/02 02:19:42;;;;;;;1.30;1.20;;;13.80;99.90;;;;;;5095079;28;20937;-60
2022/09/02 02:22:09;;;;;;;1.30;1.20;;;13.80;99.90;;;;;;5095103;28;20838;-60
2022/09/02 02:24:36;;;;;;;1.40;1.30;;;14.00;99.90;;;;;;5094982;28;20503;-59
2022/09/02 02:27:04;;;;;;;1.33;1.20;;;14.10;99.90;;;;;;5095216;28;20454;-60
2022/09/02 02:29:30;;;;;;;1.80;1.40;;;14.10;99.90;;;;;;5095021;28;20486;-60
2022/09/02 02:31:58;;;;;;;2.27;1.53;;;14.00;99.90;;;;;;5095042;28;20466;-59
2022/09/02 02:34:24;;;;;;;1.50;1.40;;;14.10;99.90;;;;;;5094976;28;20460;-60
2022/09/02 02:36:51;;;;;;;1.40;1.30;;;14.10;99.90;;;;;;5094728;28;20482;-60
2022/09/02 02:39:18;;;;;;;1.80;1.70;;;14.00;99.90;;;;;;5094984;28;20442;-60
2022/09/02 02:41:45;;;;;;;2.20;1.60;;;14.10;99.90;;;;;;5094828;28;20471;-60
2022/09/02 02:44:12;;;;;;;1.67;1.40;;;14.10;99.90;;;;;;5094797;28;20469;-60
2022/09/02 02:46:38;;;;;;;2.13;1.47;;;14.30;99.90;;;;;;5094728;28;20450;-60
2022/09/02 02:49:06;;;;;;;2.57;1.43;;;14.40;99.90;;;;;;5094421;28;20485;-60
2022/09/02 02:51:34;;;;;;;2.13;1.60;;;14.50;99.90;;;;;;5094522;28;20485;-60
2022/09/02 02:54:01;;;;;;;5.00;1.40;;;14.60;99.90;;;;;;5094622;28;20442;-60
2022/09/02 02:56:28;;;;;;;1.63;1.40;;;14.60;99.90;;;;;;5094570;28;20452;-60
2022/09/02 02:58:55;;;;;;;4.40;1.50;;;14.70;99.90;;;;;;5094418;28;20450;-60
2022/09/02 03:01:23;;;;;;;2.00;1.40;;;14.70;99.90;;;;;;5094381;28;20974;-60
2022/09/02 03:03:50;;;;;;;1.87;1.37;;;14.70;99.90;;;;;;5094255;28;20565;-60
2022/09/02 03:06:18;;;;;;;1.47;1.37;;;14.80;99.90;;;;;;5094150;28;20452;-60
2022/09/02 03:08:47;;;;;;;1.43;1.33;;;14.80;99.90;;;;;;5094334;28;20495;-60
2022/09/02 03:11:14;;;;;;;1.77;1.50;;;14.80;99.90;;;;;;5094350;28;20446;-60
2022/09/02 03:13:40;;;;;;;2.00;1.70;;;14.80;99.90;;;;;;5093636;28;20549;-60
2022/09/02 03:16:07;;;;;;;1.60;1.50;;;14.90;99.90;;;;;;5094092;28;20951;-60
2022/09/02 03:18:33;;;;;;;1.77;1.30;;;14.90;99.90;;;;;;5093915;28;21038;-60
2022/09/02 03:21:00;;;;;;;1.47;1.37;;;14.90;99.90;;;;;;5094198;28;20453;-60
2022/09/02 03:23:28;;;;;;;1.70;1.50;;;14.90;99.90;;;;;;5093969;28;20482;-60
2022/09/02 03:25:55;;;;;;;1.90;1.30;;;14.70;99.90;;;;;;5094027;28;20453;-60
2022/09/02 03:28:21;;;;;;;2.30;1.77;;;14.60;99.90;;;;;;5093779;28;20972;-59
2022/09/02 03:30:48;;;;;;;1.63;1.53;;;14.40;99.90;;;;;;5093827;28;20877;-60
2022/09/02 03:33:14;;;;;;;2.17;1.77;;;14.20;99.90;;;;;;5093657;28;20534;-60
2022/09/02 03:35:42;;;;;;;2.23;1.67;;;14.10;99.90;;;;;;5093870;28;20447;-60
2022/09/02 03:38:11;;;;;;;2.60;1.83;;;14.00;99.90;;;;;;5093849;28;20890;-60
2022/09/02 03:40:40;;;;;;;5.13;2.27;;;13.80;99.90;;;;;;5093693;28;20439;-60
2022/09/02 03:43:07;;;;;;;2.80;1.70;;;13.50;99.90;;;;;;5093544;28;20485;-60
2022/09/02 03:45:33;;;;;;;5.70;1.80;;;13.30;99.90;;;;;;5093495;28;20446;-59
2022/09/02 03:47:59;;;;;;;1.70;1.60;;;13.30;99.90;;;;;;5093228;28;20841;-60
2022/09/02 03:50:29;;;;;;;3.80;1.87;;;13.40;99.90;;;;;;5093531;28;20453;-60
2022/09/02 03:52:56;;;;;;;1.60;1.50;;;13.30;99.90;;;;;;5093511;28;20450;-60
2022/09/02 03:55:23;;;;;;;4.47;1.50;;;13.30;99.90;;;;;;5093388;28;20542;-60
2022/09/02 03:57:51;;;;;;;1.60;1.50;;;13.30;99.90;;;;;;5093367;28;20450;-60
2022/09/02 04:00:20;;;;;;;2.93;1.40;;;13.20;99.90;;;;;;5093128;28;20953;-59
2022/09/02 04:02:46;;;;;;;2.20;2.00;;;13.10;99.90;;;;;;5093396;28;20833;-60
2022/09/02 04:05:13;;;;;;;2.13;1.60;;;13.00;99.90;;;;;;5093345;28;20447;-60
2022/09/02 04:07:40;;;;;;;4.03;1.60;;;13.20;99.90;;;;;;5093248;28;20449;-60
2022/09/02 04:10:08;;;;;;;2.13;1.70;;;13.10;99.90;;;;;;5093153;28;20473;-60
2022/09/02 04:12:35;;;;;;;4.63;1.57;;;13.20;99.90;;;;;;5093094;28;20451;-60
2022/09/02 04:15:04;;;;;;;3.23;1.83;;;13.30;99.90;;;;;;5092954;28;20934;-60
2022/09/02 04:17:31;;;;;;;1.60;1.50;;;13.20;99.90;;;;;;5093197;28;20539;-60
2022/09/02 04:19:57;;;;;;;2.30;1.70;;;13.20;99.90;;;;;;5093139;28;20446;-60
2022/09/02 04:22:24;;;;;;;4.20;1.80;;;13.20;99.90;;;;;;5092904;28;20553;-59
2022/09/02 04:24:50;;;;;;;3.77;1.97;;;13.30;99.90;;;;;;5092980;28;20537;-60
2022/09/02 04:27:17;;;;;;;1.80;1.63;;;13.30;99.90;;;;;;5092827;28;20541;-60
2022/09/02 04:29:43;;;;;;;4.10;1.97;;;13.50;99.90;;;;;;5092912;28;20447;-60
2022/09/02 04:32:11;;;;;;;3.23;2.10;;;13.60;99.90;;;;;;5092988;28;20450;-60
2022/09/02 04:34:37;;;;;;;2.17;1.90;;;13.60;99.90;;;;;;5092940;28;20450;-60
2022/09/02 04:37:04;;;;;;;2.20;1.60;;;13.70;99.90;;;;;;5092849;28;20450;-60
2022/09/02 04:39:30;;;;;;;1.60;1.50;;;13.40;99.90;;;;;;5092675;28;20447;-60
2022/09/02 04:41:57;;;;;;;5.47;2.40;;;13.40;99.90;;;;;;5092693;28;20439;-60
2022/09/02 04:44:24;;;;;;;2.60;2.37;;;13.30;99.90;;;;;;5092849;28;20446;-60
2022/09/02 04:46:51;;;;;;;1.83;1.60;;;13.00;99.90;;;;;;5092817;28;20524;-59
2022/09/02 04:49:19;;;;;;;2.23;2.00;;;13.00;99.90;;;;;;5092528;28;20512;-60
2022/09/02 04:51:46;;;;;;;2.30;1.93;;;12.90;99.90;;;;;;5092650;28;20451;-60
2022/09/02 04:54:12;;;;;;;2.10;2.00;;;12.80;99.90;;;;;;5092423;28;20457;-59
2022/09/02 04:56:39;;;;;;;1.90;1.80;;;12.90;99.90;;;;;;5092303;28;20468;-59
2022/09/02 04:59:06;;;;;;;3.30;1.70;;;12.90;99.90;;;;;;5092554;28;20481;-59
2022/09/02 05:01:35;;;;;;;1.83;1.60;;;13.00;99.90;;;;;;5092643;28;20449;-60
2022/09/02 05:04:06;;;;;;;2.17;1.97;;;13.20;99.90;;;;;;5092724;28;20518;-59
2022/09/02 05:06:33;;;;;;;2.70;2.00;;;13.40;99.90;;;;;;5092615;28;20450;-60
2022/09/02 05:09:01;;;;;;;4.10;2.27;;;13.40;99.90;;;;;;5092303;28;20454;-59
2022/09/02 05:11:30;;;;;;;3.03;2.07;;;13.50;99.90;;;;;;5092617;28;20446;-59
2022/09/02 05:13:59;;;;;;;4.50;1.80;;;13.60;99.90;;;;;;5092584;28;20450;-60
2022/09/02 05:16:29;;;;;;;3.00;2.80;;;13.70;99.90;;;;;;5092587;28;20447;-60
2022/09/02 05:18:57;;;;;;;1.93;1.73;;;13.90;99.90;;;;;;5092378;28;20448;-59
2022/09/02 05:21:23;;;;;;;13.37;5.50;;;14.00;99.90;;;;;;5092304;28;20450;-60
2022/09/02 05:23:52;;;;;;;17.40;4.23;;;14.20;99.90;;;;;;5092653;28;20522;-60
2022/09/02 05:26:19;;;;;;;1.83;1.73;;;14.30;99.90;;;;;;5092427;28;20453;-59
2022/09/02 05:28:45;;;;;;;5.77;2.57;;;14.40;99.90;;;;;;5092349;28;20874;-59
2022/09/02 05:31:14;;;;;;;1.63;1.53;;;14.50;99.90;;;;;;5092181;28;20533;-59
2022/09/02 05:33:41;;;;;;;3.77;2.37;;;14.50;99.90;;;;;;5092182;28;20442;-60
2022/09/02 05:36:11;;;;;;;4.80;1.63;;;14.60;99.90;;;;;;5092030;28;20533;-59
2022/09/02 05:38:37;;;;;;;2.70;2.13;;;14.50;99.90;;;;;;5095125;28;20450;-59
2022/09/02 05:41:07;;;;;;;1.60;1.50;;;14.50;99.90;;;;;;5095960;28;20445;-59
2022/09/02 05:43:35;;;;;;;4.53;1.40;;;14.60;99.90;;;;;;5095640;28;20478;-59
2022/09/02 05:46:05;;;;;;;2.17;1.60;;;14.50;99.90;;;;;;5095830;28;20450;-59
2022/09/02 05:51:16;;;;;;;5.30;1.70;;;14.50;99.90;;;;;;5095826;28;20555;-60
2022/09/02 05:53:42;;;;;;;5.40;1.80;;;14.60;99.90;;;;;;5095598;28;20457;-59
2022/09/02 05:56:10;;;;;;;2.00;1.63;;;14.70;99.90;;;;;;5095621;28;20451;-59
2022/09/02 05:58:37;;;;;;;3.90;1.70;;;14.80;99.90;;;;;;5095637;28;20449;-59
2022/09/02 06:01:07;;;;;;;1.90;1.43;;;14.80;99.90;;;;;;5095504;28;20451;-60
2022/09/02 06:03:34;;;;;;;2.63;1.57;;;14.90;99.90;;;;;;5095515;28;20478;-59
2022/09/02 06:06:00;;;;;;;5.33;1.87;;;14.80;99.90;;;;;;5095458;28;20456;-60
2022/09/02 06:08:27;;;;;;;5.17;2.10;;;14.40;99.90;;;;;;5095278;28;20447;-59
2022/09/02 06:10:54;;;;;;;1.70;1.60;;;14.60;99.90;;;;;;5095285;28;20446;-59
2022/09/02 06:13:21;;;;;;;4.40;1.57;;;14.90;99.90;;;;;;5095187;28;20456;-59
2022/09/02 06:15:48;;;;;;;1.60;1.50;;;14.80;99.90;;;;;;5095042;28;20443;-59
2022/09/02 06:18:16;;;;;;;2.50;1.80;;;14.80;99.90;;;;;;5095312;28;20865;-60
2022/09/02 06:20:43;;;;;;;1.60;1.50;;;14.80;99.90;;;;;;5095213;28;20449;-60
2022/09/02 06:23:10;;;;;;;4.10;1.67;;;14.90;99.90;;;;;;5094972;28;20470;-60
2022/09/02 06:25:37;;;;;;;2.23;1.63;;;15.00;99.90;;;;;;5095113;28;20453;-59
2022/09/02 06:28:05;;;;;;;2.50;1.43;;;15.20;99.90;;;;;;5094898;28;20450;-59
2022/09/02 06:30:33;;;;;;;1.60;1.47;;;15.00;99.90;;;;;;5094893;28;20469;-59
2022/09/02 06:33:02;;;;;;;3.37;1.77;;;14.90;99.90;;;;;;5095084;28;20881;-59
2022/09/02 06:35:30;;;;;;;2.87;2.20;;;15.00;99.90;;;;;;5094828;28;20447;-59
2022/09/02 06:37:57;;;;;;;2.90;1.77;;;15.10;99.90;;;;;;5094893;28;20466;-59
2022/09/02 06:40:24;;;;;;;2.17;1.70;;;15.10;99.90;;;;;;5094619;28;20466;-59
2022/09/02 06:42:52;;;;;;;1.50;1.40;;;15.10;99.90;;;;;;5094481;28;20534;-59
2022/09/02 06:45:18;;;;;;;2.53;1.70;;;15.20;99.90;;;;;;5094849;28;20458;-59
2022/09/02 06:47:46;;;;;;;2.73;1.53;;;15.20;99.90;;;;;;5094542;28;20557;-59
2022/09/02 06:50:12;;;;;;;1.90;1.70;;;15.40;99.90;;;;;;5093524;28;20456;-59
2022/09/02 06:52:39;;;;;;;3.30;1.83;;;15.40;99.90;;;;;;5094377;28;20791;-60
2022/09/02 06:55:07;;;;;;;11.77;2.20;;;15.70;99.90;;;;;;5094347;28;20446;-59
2022/09/02 06:57:34;;;;;;;1.80;1.50;;;15.80;99.90;;;;;;5094209;28;20541;-60
2022/09/02 07:00:00;;;;;;;3.70;1.77;;;16.10;99.90;;;;;;5094321;28;20905;-59
2022/09/02 07:02:27;;;;;;;3.30;1.90;;;16.40;99.90;;;;;;5094432;28;20449;-60
2022/09/02 07:05:09;;;;;;;3.13;1.70;;;16.60;99.90;;;;;;5094239;28;20482;-60
2022/09/02 07:07:36;;;;;;;2.20;1.60;;;16.60;99.90;;;;;;5094124;28;20572;-59
2022/09/02 07:10:04;;;;;;;2.23;1.60;;;16.60;99.90;;;;;;5094355;28;20509;-59
2022/09/02 07:12:31;;;;;;;2.40;1.57;;;16.90;99.90;;;;;;5094335;28;20450;-59
2022/09/02 07:14:57;;;;;;;2.03;1.83;;;17.00;99.90;;;;;;5094244;28;20960;-59
2022/09/02 07:17:24;;;;;;;6.47;1.80;;;17.20;99.90;;;;;;5094148;28;20446;-59
2022/09/02 07:19:51;;;;;;;2.47;1.93;;;17.40;99.90;;;;;;5094082;28;20888;-59
2022/09/02 07:22:18;;;;;;;2.77;1.43;;;17.70;99.90;;;;;;5093772;28;20480;-59
2022/09/02 07:24:45;;;;;;;3.63;1.40;;;17.80;99.90;;;;;;5093748;28;20992;-59
2022/09/02 07:27:11;;;;;;;1.80;1.70;;;17.60;99.90;;;;;;5093942;28;20922;-59
2022/09/02 07:29:40;;;;;;;1.57;1.47;;;17.60;99.90;;;;;;5094085;28;20453;-59
2022/09/02 07:32:06;;;;;;;3.47;1.50;;;17.50;99.90;;;;;;5095298;28;20460;-59
2022/09/02 07:34:33;;;;;;;5.50;1.50;;;17.50;99.90;;;;;;5100570;28;20449;-60
2022/09/02 07:36:59;;;;;;;1.87;1.60;;;17.50;99.90;;;;;;5112313;28;20808;-59
2022/09/02 07:39:27;;;;;;;2.20;2.00;;;17.50;99.90;;;;;;5110743;28;20460;-60
2022/09/02 07:41:54;;;;;;;1.77;1.50;;;17.80;99.90;;;;;;5099579;28;20441;-63
2022/09/02 07:44:21;;;;;;;2.90;2.17;;;17.60;99.90;;;;;;5106578;28;20485;-60
2022/09/02 07:46:48;;;;;;;1.73;1.63;;;17.30;99.90;;;;;;5109560;27;20923;-63
2022/09/02 07:49:16;;;;;;;1.50;1.40;;;17.40;99.90;;;;;;5098762;28;20484;-61
2022/09/02 07:51:45;;;;;;;2.20;1.83;;;17.60;99.90;;;;;;5093968;28;20457;-62
2022/09/02 07:54:12;;;;;;;2.13;1.97;;;17.30;99.90;;;;;;5093171;28;20530;-61
2022/09/02 07:56:42;;;;;;;3.10;1.70;;;16.80;99.90;;;;;;5095095;28;20853;-61
2022/09/02 07:59:08;;;;;;;2.33;1.87;;;16.80;99.90;;;;;;5092550;28;20968;-63
2022/09/02 08:01:35;;;;;;;2.70;1.60;;;17.10;99.90;;;;;;5092957;28;20447;-60
2022/09/02 08:04:02;;;;;;;2.17;2.00;;;17.20;99.90;;;;;;5093088;28;20470;-61
2022/09/02 08:06:32;;;;;;;1.80;1.50;;;17.40;99.90;;;;;;5104631;27;21024;-59
2022/09/02 08:08:58;;;;;;;1.67;1.57;;;17.40;99.90;;;;;;5114970;27;20455;-59
2022/09/02 08:11:25;;;;;;;2.13;1.30;;;17.30;99.90;;;;;;5101914;28;20448;-60
2022/09/02 08:13:53;;;;;;;3.13;1.87;;;17.50;99.90;;;;;;5104263;28;20815;-60
2022/09/02 08:16:20;;;;;;;2.47;1.50;;;17.60;99.90;;;;;;5106306;28;20442;-59
2022/09/02 08:18:47;;;;;;;6.33;1.80;;;17.90;99.90;;;;;;5106005;28;20456;-60
2022/09/02 08:21:13;;;;;;;1.33;1.23;;;18.20;99.90;;;;;;5093018;28;20944;-65
2022/09/02 08:23:40;;;;;;;2.27;1.47;;;18.40;99.90;;;;;;5103310;28;20482;-61
2022/09/02 08:26:07;;;;;;;1.40;1.30;;;18.40;99.90;;;;;;5100087;28;20461;-61
2022/09/02 08:28:33;;;;;;;4.83;1.50;;;18.50;99.90;;;;;;5092151;28;20473;-61
2022/09/02 08:31:05;;;;;;;1.40;1.30;;;18.70;99.90;;;;;;5090968;28;20450;-61
2022/09/02 08:33:31;;;;;;;1.97;1.10;;;18.70;99.90;;;;;;5094551;28;20541;-59
2022/09/02 08:36:02;;;;;;;1.10;1.00;;;18.50;99.90;;;;;;5091827;28;20446;-60
2022/09/02 08:38:29;;;;;;;1.40;1.30;;;18.60;99.90;;;;;;5092800;28;20446;-59
2022/09/02 08:40:55;;;;;;;1.20;1.10;;;18.80;99.90;;;;;;5092321;28;20564;-60
2022/09/02 08:43:31;;;;;;;2.67;1.30;;;18.90;99.90;;;;;;5091809;28;20446;-60
2022/09/02 08:46:03;;;;;;;1.60;1.50;;;18.90;99.90;;;;;;5093053;28;20500;-60
2022/09/02 08:48:37;;;;;;;4.37;1.70;;;19.00;99.90;;;;;;5103128;28;20477;-61
2022/09/02 08:51:07;;;;;;;5.03;1.50;;;19.00;99.90;;;;;;5102434;28;20451;-58
2022/09/02 08:53:45;;;;;;;2.00;1.40;;;19.10;99.90;;;;;;5107156;28;20445;-61
2022/09/02 08:56:14;;;;;;;1.23;1.13;;;19.10;99.90;;;;;;5095116;28;20458;-61
2022/09/02 08:58:46;;;;;;;2.53;1.50;;;19.30;99.90;;;;;;5092758;28;20455;-62
2022/09/02 09:01:23;;;;;;;1.30;1.20;;;19.30;99.90;;;;;;5092103;28;20454;-62
2022/09/02 09:04:07;;;;;;;3.30;1.30;;;19.40;99.90;;;;;;5091647;28;20879;-62
2022/09/02 09:06:41;;;;;;;1.87;1.10;;;19.40;99.90;;;;;;5096821;28;20450;-63
2022/09/02 09:09:16;;;;;;;1.90;1.13;;;19.50;99.90;;;;;;5102233;28;20786;-61
2022/09/02 09:11:48;;;;;;;1.90;1.70;;;19.40;99.90;;;;;;5099890;28;20473;-60
2022/09/02 09:14:26;;;;;;;2.40;1.40;;;19.70;99.90;;;;;;5096003;28;20931;-63
2022/09/02 09:16:57;;;;;;;1.30;1.20;;;19.90;99.90;;;;;;5106008;28;20475;-61
2022/09/02 09:19:32;;;;;;;4.53;1.20;;;19.90;99.90;;;;;;5096325;28;20526;-63
2022/09/02 09:22:02;;;;;;;1.23;1.10;;;20.00;99.90;;;;;;5095813;28;20454;-64
2022/09/02 09:24:35;;;;;;;1.30;1.20;;;19.90;99.90;;;;;;5103769;27;20526;-65
2022/09/02 09:27:04;;;;;;;3.80;1.10;;;19.70;99.90;;;;;;5130543;27;20514;-65
2022/09/02 09:29:32;;;;;;;2.40;1.40;;;19.50;99.90;;;;;;5121347;27;20461;-64
2022/09/02 09:32:01;;;;;;;1.60;1.30;;;19.80;99.90;;;;;;5106806;28;20442;-65
2022/09/02 09:34:55;;;;;;;1.60;1.50;;;19.70;99.90;;;;;;5096030;28;20450;-60
2022/09/02 09:37:29;;;;;;;1.20;1.10;;;19.70;99.90;;;;;;5098602;28;20751;-62
2022/09/02 09:39:55;;;;;;;2.00;1.20;;;20.00;99.90;;;;;;5101743;28;20450;-62
2022/09/02 09:42:32;;;;;;;1.43;1.10;;;20.20;99.90;;;;;;5098823;28;20460;-61
2022/09/02 09:44:58;;;;;;;1.70;1.27;;;20.20;99.90;;;;;;5104037;28;20833;-61
2022/09/02 09:47:26;;;;;;;1.90;1.00;;;20.40;99.90;;;;;;5102032;28;20483;-63
2022/09/02 09:50:08;;;;;;;1.70;1.30;;;20.40;99.90;;;;;;5102781;28;20549;-61
2022/09/02 09:52:35;;;;;;;0.90;0.90;;;20.50;99.90;;;;;;5105439;28;20457;-62
2022/09/02 09:55:15;;;;;;;2.13;1.50;;;20.90;99.90;;;;;;5095328;28;20454;-61
2022/09/02 09:57:44;;;;;;;1.60;1.30;;;20.80;99.90;;;;;;5106623;28;20491;-61
2022/09/02 10:00:19;;;;;;;1.50;1.00;;;20.50;99.90;;;;;;5122483;27;20492;-60
2022/09/02 10:02:49;;;;;;;2.50;1.03;;;20.30;99.90;;;;;;5120008;27;20455;-59
2022/09/02 10:05:32;;;;;;;1.20;1.10;;;20.40;99.90;;;;;;5115131;28;20844;-60
2022/09/02 10:08:00;;;;;;;1.30;1.20;;;20.50;99.90;;;;;;5095088;28;20446;-61
2022/09/02 10:10:29;;;;;;;1.40;1.10;;;20.50;99.90;;;;;;5096229;28;20534;-62
2022/09/02 10:12:59;;;;;;;3.63;1.53;;;20.60;99.90;;;;;;5102161;28;20493;-60
2022/09/02 10:15:37;;;;;;;2.07;1.97;;;20.50;99.90;;;;;;5107843;27;20805;-59
2022/09/02 10:18:14;;;;;;;1.20;1.10;;;20.30;99.90;;;;;;5094828;28;20454;-58
2022/09/02 10:20:49;;;;;;;1.10;1.00;;;20.10;99.90;;;;;;5106491;28;20541;-59
2022/09/02 10:23:31;;;;;;;2.30;1.20;;;20.10;99.90;;;;;;5096599;28;20480;-61
2022/09/02 10:26:09;;;;;;;2.03;1.30;;;20.30;99.90;;;;;;5094117;28;20277;-62
2022/09/02 10:29:15;;;;;;;1.83;1.23;;;20.60;99.90;;;;;;5094849;28;20452;-62
2022/09/02 10:31:50;;;;;;;2.40;1.00;;;20.50;99.90;;;;;;5094281;28;20468;-62
2022/09/02 10:34:28;;;;;;;3.53;1.47;;;20.60;99.90;;;;;;5093448;28;20953;-62
2022/09/02 10:37:11;;;;;;;3.27;1.30;;;20.60;99.90;;;;;;5095037;28;20875;-62
2022/09/02 10:39:55;;;;;;;1.60;1.50;;;20.80;99.90;;;;;;5094866;28;20462;-62
2022/09/02 10:42:32;;;;;;;1.20;1.10;;;21.30;99.90;;;;;;5094682;28;20446;-62
2022/09/02 10:45:07;;;;;;;1.03;0.97;;;21.50;99.90;;;;;;5094704;28;20504;-62
2022/09/02 10:47:37;;;;;;;2.27;1.30;;;21.20;99.90;;;;;;5094523;28;20474;-62
2022/09/02 10:50:13;;;;;;;3.47;1.20;;;20.70;99.90;;;;;;5094444;28;20442;-62
2022/09/02 10:52:56;;;;;;;2.70;1.00;;;20.80;99.90;;;;;;5094542;28;20446;-62
2022/09/02 10:55:36;;;;;;;2.60;1.00;;;21.20;99.90;;;;;;5094663;28;20446;-62
2022/09/02 10:58:07;;;;;;;6.80;1.50;;;21.50;99.90;;;;;;5094624;28;20450;-62
2022/09/02 11:00:39;;;;;;;1.30;1.10;;;21.80;99.90;;;;;;5094511;28;20446;-62
2022/09/02 11:03:12;;;;;;;1.73;1.00;;;21.90;99.90;;;;;;5094322;28;20453;-62
2022/09/02 11:05:46;;;;;;;1.33;0.93;;;22.00;99.90;;;;;;5094637;28;20488;-62
2022/09/02 11:08:18;;;;;;;1.03;0.93;;;22.10;99.90;;;;;;5094453;28;20450;-62
2022/09/02 11:10:56;;;;;;;1.30;1.20;;;22.20;99.90;;;;;;5094338;28;20453;-62
2022/09/02 11:13:30;;;;;;;1.00;0.90;;;21.60;99.90;;;;;;5094189;28;20497;-62
2022/09/02 11:16:02;;;;;;;2.10;1.10;;;21.10;99.90;;;;;;5094365;28;20461;-62
2022/09/02 11:18:35;;;;;;;1.20;1.03;;;20.90;99.90;;;;;;5094310;28;20810;-62
2022/09/02 11:21:10;;;;;;;2.50;0.80;;;21.10;99.90;;;;;;5094214;28;20533;-62
2022/09/02 11:23:43;;;;;;;3.07;1.00;;;21.20;99.90;;;;;;5094071;28;20454;-62
2022/09/02 11:26:15;;;;;;;1.07;0.97;;;21.10;99.90;;;;;;5093689;28;20478;-62
2022/09/02 11:28:49;;;;;;;1.63;1.00;;;21.40;99.90;;;;;;5094074;28;20446;-62
2022/09/02 11:31:21;;;;;;;1.10;1.00;;;21.30;99.90;;;;;;5093808;28;20441;-62
2022/09/02 11:33:55;;;;;;;1.60;1.07;;;21.10;99.90;;;;;;5093856;28;20451;-62
2022/09/02 11:36:24;;;;;;;1.53;1.03;;;20.90;99.90;;;;;;5093239;28;20482;-62
2022/09/02 11:38:54;;;;;;;1.20;1.10;;;21.00;99.90;;;;;;5093827;28;20443;-62
2022/09/02 11:41:38;;;;;;;1.10;1.00;;;20.80;99.90;;;;;;5093742;28;20533;-62
2022/09/02 11:44:21;;;;;;;2.87;1.10;;;20.80;99.90;;;;;;5093594;28;20450;-62
2022/09/02 11:47:07;;;;;;;1.30;1.13;;;20.70;99.90;;;;;;5093490;28;20945;-62
2022/09/02 11:50:09;;;;;;;3.10;1.00;;;20.70;99.90;;;;;;5093736;28;20545;-60
2022/09/02 11:52:56;;;;;;;1.67;1.13;;;20.60;99.90;;;;;;5051112;28;20457;-62
2022/09/02 11:55:30;;;;;;;2.17;1.13;;;20.70;99.90;;;;;;5093233;28;20586;-62
2022/09/02 11:57:58;;;;;;;1.80;1.03;;;20.60;99.90;;;;;;5093245;28;20458;-62
2022/09/02 12:00:29;;;;;;;1.10;1.00;;;20.50;99.90;;;;;;5093339;28;20446;-62
2022/09/02 12:03:10;;;;;;;2.20;1.00;;;20.40;99.90;;;;;;5093290;28;20450;-62
2022/09/02 12:05:50;;;;;;;2.30;1.00;;;20.50;99.90;;;;;;5093046;28;20485;-62
2022/09/02 12:08:53;;;;;;;1.10;1.00;;;20.50;99.90;;;;;;5093451;28;20454;-62
2022/09/02 12:11:42;;;;;;;2.17;1.17;;;20.80;99.90;;;;;;5093108;28;20952;-62
2022/09/02 12:14:12;;;;;;;0.93;0.93;;;20.90;99.90;;;;;;5092995;28;20529;-62
2022/09/02 12:16:44;;;;;;;5.33;1.23;;;21.00;99.90;;;;;;5093221;28;20442;-62
2022/09/02 12:19:28;;;;;;;1.10;1.00;;;21.00;99.90;;;;;;5093253;28;20965;-62
2022/09/02 12:22:41;;;;;;;0.80;0.80;;;20.80;99.90;;;;;;5093069;28;20455;-62
2022/09/02 12:25:47;;;;;;;4.50;1.40;;;20.70;99.90;;;;;;5045086;28;21054;-62
2022/09/02 12:28:24;;;;;;;1.50;1.20;;;20.90;99.90;;;;;;5086078;28;20446;-62
2022/09/02 12:31:17;;;;;;;1.17;1.07;;;21.30;99.90;;;;;;5092794;28;20446;-62
2022/09/02 12:33:48;;;;;;;2.60;0.93;;;21.60;99.90;;;;;;5092629;28;20468;-62
2022/09/02 12:36:45;;;;;;;1.27;1.17;;;21.70;99.90;;;;;;5092815;28;20450;-62
2022/09/02 12:39:50;;;;;;;1.73;1.00;;;21.80;99.90;;;;;;5092678;28;20453;-62
2022/09/02 12:42:22;;;;;;;1.40;1.27;;;21.50;99.90;;;;;;5092816;28;20460;-62
2022/09/02 12:44:54;;;;;;;2.90;1.10;;;21.00;99.90;;;;;;5092354;28;20565;-62
2022/09/02 12:47:31;;;;;;;1.10;1.00;;;21.10;99.90;;;;;;5093595;28;20479;-62
2022/09/02 12:50:04;;;;;;;4.03;1.10;;;20.90;99.90;;;;;;5097031;28;20438;-62
2022/09/02 12:52:45;;;;;;;1.60;1.50;;;21.00;99.90;;;;;;5097073;28;20537;-62
2022/09/02 12:55:18;;;;;;;3.53;1.07;;;20.90;99.90;;;;;;5096702;28;20452;-62
2022/09/02 12:57:50;;;;;;;5.63;1.20;;;21.00;99.90;;;;;;5096491;28;20602;-62
2022/09/02 13:00:27;;;;;;;1.37;0.93;;;21.10;99.90;;;;;;5096836;28;20446;-62
2022/09/02 13:03:03;;;;;;;2.90;1.10;;;21.10;99.90;;;;;;5096799;28;20492;-62
2022/09/02 13:05:44;;;;;;;1.20;1.00;;;21.10;99.90;;;;;;5096590;28;20484;-62